Mantorville, Minnesota
Current Conditions -  °F | °C
As of 8:54 PM on Sunday 21 Dec 2014 (Local Time) from KTOB Reporting Station
Haze Haze  
Wind Chill: -2°   Ceiling: 500
Heat Index:   Visibility: 2mi
Dew Point:   Wind: 17mph
Humidity: 100%   Direction: 180°S
Pressure: 29.75"   Gusts: 23mph
Location:  44.07°N, 92.76°W
Report Text: KTOB 220254Z AUTO 18015G20KT 2SM BR OVC005 03/03 A2975 RMK AO2
Loading
Personal Weather Stations






























Interactive Weather Map New forecast layout! Learn more

10-Day Weather Forecast

Advertisements
Track Severe Weather on mobile